createdAt,value
2018-12-26T00:01:23.127Z,60.05
2018-12-26T00:03:54.379Z,56.28
2018-12-26T00:06:25.726Z,47.90
2018-12-26T00:08:57.493Z,38.88
2018-12-26T00:11:28.889Z,41.83
2018-12-26T00:14:00.109Z,33.23
2018-12-26T00:16:31.575Z,27.77
2018-12-26T00:19:03.143Z,24.52
2018-12-26T00:21:34.961Z,17.48
2018-12-26T00:24:06.435Z,20.25
2018-12-26T00:26:37.995Z,23.98
2018-12-26T00:29:09.464Z,19.82
2018-12-26T00:31:40.712Z,18.98
2018-12-26T00:34:12.201Z,16.97
2018-12-26T00:36:43.610Z,16.35
2018-12-26T00:39:14.861Z,17.25
2018-12-26T00:41:46.134Z,17.52
2018-12-26T00:44:17.728Z,18.87
2018-12-26T00:46:49.165Z,17.87
2018-12-26T00:49:20.534Z,34.45
2018-12-26T00:51:51.807Z,30.57
2018-12-26T00:54:23.165Z,23.07
2018-12-26T00:56:54.684Z,23.25
2018-12-26T00:59:25.940Z,24.87
2018-12-26T01:01:57.238Z,21.95
2018-12-26T01:04:28.594Z,17.87
2018-12-26T01:06:59.714Z,29.10
2018-12-26T01:09:31.143Z,42.15
2018-12-26T01:12:02.799Z,38.70
2018-12-26T01:14:34.303Z,29.32
2018-12-26T01:17:05.870Z,19.85
2018-12-26T01:19:37.600Z,17.05
2018-12-26T01:22:08.678Z,17.57
2018-12-26T01:24:40.257Z,16.07
2018-12-26T01:27:11.734Z,13.18
2018-12-26T01:29:42.872Z,16.45
2018-12-26T01:32:14.393Z,14.73
2018-12-26T01:34:45.394Z,13.25
2018-12-26T01:37:16.679Z,15.85
2018-12-26T01:39:48.032Z,15.13
2018-12-26T01:42:19.421Z,14.53
2018-12-26T01:44:51.046Z,21.62
2018-12-26T01:47:22.608Z,15.75
2018-12-26T01:49:54.212Z,23.10
2018-12-26T01:52:25.655Z,27.07
2018-12-26T01:54:57.474Z,17.92
2018-12-26T01:57:28.879Z,16.85
2018-12-26T02:00:00.170Z,23.07
2018-12-26T02:02:31.585Z,17.73
2018-12-26T02:05:14.610Z,17.20
2018-12-26T02:07:46.201Z,17.60
2018-12-26T02:10:17.524Z,17.35
2018-12-26T02:12:48.845Z,17.05
2018-12-26T02:15:20.228Z,19.37
2018-12-26T02:17:51.455Z,15.43
2018-12-26T02:20:22.926Z,18.48
2018-12-26T02:22:54.224Z,18.07
2018-12-26T02:25:25.437Z,16.05
2018-12-26T02:27:56.451Z,19.00
2018-12-26T02:30:27.825Z,16.42
2018-12-26T02:32:59.419Z,20.65
2018-12-26T02:35:30.965Z,19.60
2018-12-26T02:38:02.252Z,18.95
2018-12-26T02:40:33.393Z,19.32
2018-12-26T02:43:04.783Z,26.35
2018-12-26T02:45:35.917Z,22.93
2018-12-26T02:48:07.149Z,19.92
2018-12-26T02:50:38.528Z,17.80
2018-12-26T02:53:09.954Z,17.77
2018-12-26T02:55:41.319Z,15.23
2018-12-26T02:58:12.494Z,15.40
2018-12-26T03:00:43.933Z,16.57
2018-12-26T03:03:15.111Z,18.05
2018-12-26T03:05:47.013Z,15.75
2018-12-26T03:08:18.649Z,15.60
2018-12-26T03:10:50.282Z,13.78
2018-12-26T03:13:21.629Z,15.78
2018-12-26T03:15:53.044Z,14.10
2018-12-26T03:18:24.880Z,13.50
2018-12-26T03:20:56.545Z,13.03
2018-12-26T03:23:27.694Z,11.57
2018-12-26T03:25:58.910Z,12.23
2018-12-26T03:28:30.346Z,12.53
2018-12-26T03:31:01.566Z,11.78
2018-12-26T03:33:32.879Z,13.35
2018-12-26T03:36:04.566Z,8.90
2018-12-26T03:38:36.128Z,9.10
2018-12-26T03:41:08.011Z,9.30
2018-12-26T03:43:39.755Z,14.65
2018-12-26T03:46:11.230Z,10.20
2018-12-26T03:48:42.786Z,9.28
2018-12-26T03:51:14.252Z,11.43
2018-12-26T03:53:45.928Z,12.55
2018-12-26T03:56:17.161Z,9.55
2018-12-26T03:58:49.061Z,11.00
2018-12-26T04:01:20.691Z,10.63
2018-12-26T04:03:52.620Z,13.40
2018-12-26T04:06:24.343Z,12.53
2018-12-26T04:08:56.246Z,9.68
2018-12-26T04:11:27.653Z,12.70
2018-12-26T04:13:59.395Z,12.03
2018-12-26T04:16:30.962Z,10.68
2018-12-26T04:19:02.143Z,10.15
2018-12-26T04:21:34.040Z,8.90
2018-12-26T04:24:05.602Z,6.95
2018-12-26T04:26:37.389Z,6.08
2018-12-26T04:29:09.002Z,6.35
2018-12-26T04:31:40.544Z,9.95
2018-12-26T04:34:11.777Z,5.10
2018-12-26T04:36:43.052Z,5.17
2018-12-26T04:39:14.657Z,7.08
2018-12-26T04:41:46.071Z,6.60
2018-12-26T04:44:17.699Z,8.95
2018-12-26T04:46:49.114Z,9.83
2018-12-26T04:49:20.596Z,5.92
2018-12-26T04:51:51.971Z,6.62
2018-12-26T04:54:23.324Z,7.62
2018-12-26T04:56:54.360Z,8.60
2018-12-26T04:59:25.956Z,13.15
2018-12-26T05:01:57.416Z,12.82
2018-12-26T05:04:28.653Z,9.35
2018-12-26T05:07:00.266Z,9.18
2018-12-26T05:09:31.882Z,11.35
2018-12-26T05:12:05.656Z,12.35
2018-12-26T05:14:36.464Z,11.12
2018-12-26T05:17:08.229Z,12.15
2018-12-26T05:19:39.500Z,13.68
2018-12-26T05:22:10.925Z,13.80
2018-12-26T05:24:42.570Z,22.85
2018-12-26T05:27:13.795Z,19.27
2018-12-26T05:29:44.852Z,21.05
2018-12-26T05:32:16.327Z,18.07
2018-12-26T05:34:47.940Z,12.58
2018-12-26T05:37:20.356Z,8.10
2018-12-26T05:39:51.852Z,5.85
2018-12-26T05:42:23.293Z,6.80
2018-12-26T05:45:06.221Z,8.23
2018-12-26T05:47:37.826Z,5.87
2018-12-26T05:50:09.466Z,8.28
2018-12-26T05:52:41.033Z,8.33
2018-12-26T05:55:12.368Z,12.55
2018-12-26T05:57:43.830Z,8.70
2018-12-26T06:00:15.488Z,8.98
2018-12-26T06:02:46.709Z,6.20
2018-12-26T06:05:18.430Z,12.85
2018-12-26T06:07:50.049Z,10.78
2018-12-26T06:10:21.553Z,10.35
2018-12-26T06:12:53.258Z,18.67
2018-12-26T06:15:24.877Z,27.85
2018-12-26T06:17:56.298Z,29.30
2018-12-26T06:20:27.938Z,28.40
2018-12-26T06:22:59.372Z,33.28
2018-12-26T06:25:30.691Z,34.50
2018-12-26T06:28:01.861Z,24.10
2018-12-26T06:30:33.000Z,27.67
2018-12-26T06:33:04.485Z,24.85
2018-12-26T06:35:35.851Z,24.45
2018-12-26T06:38:07.218Z,12.35
2018-12-26T06:40:38.583Z,19.50
2018-12-26T06:43:09.956Z,16.37
2018-12-26T06:45:41.415Z,16.15
2018-12-26T06:48:12.874Z,25.82
2018-12-26T06:50:44.173Z,26.07
2018-12-26T06:53:15.638Z,40.75
2018-12-26T06:55:47.233Z,13.00
2018-12-26T06:58:18.764Z,16.27
2018-12-26T07:00:50.197Z,18.00
2018-12-26T07:03:21.477Z,18.77
2018-12-26T07:05:53.084Z,26.37
2018-12-26T07:08:24.680Z,34.63
2018-12-26T07:10:55.938Z,32.00
2018-12-26T07:13:27.215Z,29.15
2018-12-26T07:15:58.434Z,42.83
2018-12-26T07:18:30.114Z,24.90
2018-12-26T07:21:01.288Z,32.35
2018-12-26T07:23:32.301Z,34.50
2018-12-26T07:26:03.923Z,22.42
2018-12-26T07:28:35.058Z,19.73
2018-12-26T07:31:06.655Z,24.97
2018-12-26T07:33:37.864Z,26.90
2018-12-26T07:36:09.389Z,23.93
2018-12-26T07:38:40.728Z,23.03
2018-12-26T07:41:12.154Z,19.73
2018-12-26T07:43:43.058Z,16.30
2018-12-26T07:46:14.331Z,17.27
2018-12-26T07:48:45.554Z,15.67
2018-12-26T07:51:16.899Z,17.97
2018-12-26T07:53:48.301Z,11.93
2018-12-26T07:56:19.641Z,12.17
2018-12-26T07:58:51.203Z,13.33
2018-12-26T08:01:22.287Z,11.63
2018-12-26T08:04:04.799Z,16.73
2018-12-26T08:06:36.564Z,27.37
2018-12-26T08:09:10.406Z,16.53
2018-12-26T08:11:41.489Z,12.10
2018-12-26T08:14:12.409Z,12.37
2018-12-26T08:16:43.621Z,11.20
2018-12-26T08:19:14.754Z,13.20
2018-12-26T08:21:47.177Z,10.73
2018-12-26T08:24:18.403Z,9.50
2018-12-26T08:26:49.976Z,8.78
2018-12-26T08:29:21.220Z,6.42
2018-12-26T08:31:52.564Z,7.60
2018-12-26T08:34:23.892Z,11.75
2018-12-26T08:36:55.165Z,8.55
2018-12-26T08:39:26.140Z,24.35
2018-12-26T08:41:57.710Z,24.37
2018-12-26T08:44:28.993Z,14.35
2018-12-26T08:47:00.829Z,10.75
2018-12-26T08:49:31.938Z,16.45
2018-12-26T08:52:03.322Z,12.20
2018-12-26T08:54:54.455Z,12.68
2018-12-26T08:57:26.000Z,9.95
2018-12-26T08:59:57.394Z,10.15
2018-12-26T09:02:28.818Z,12.15
2018-12-26T09:05:00.093Z,20.10
2018-12-26T09:07:31.691Z,22.30
2018-12-26T09:10:03.063Z,20.48
2018-12-26T09:12:34.884Z,21.25
2018-12-26T09:15:06.779Z,21.33
2018-12-26T09:17:38.434Z,20.17
2018-12-26T09:20:10.179Z,29.90
2018-12-26T09:22:41.768Z,40.00
2018-12-26T09:25:12.878Z,31.40
2018-12-26T09:27:44.451Z,19.65
2018-12-26T09:30:15.841Z,18.48
2018-12-26T09:32:47.560Z,32.30
2018-12-26T09:35:20.887Z,29.92
2018-12-26T09:37:51.809Z,25.95
2018-12-26T09:40:23.081Z,9.78
2018-12-26T09:42:54.767Z,16.82
2018-12-26T09:45:25.870Z,15.58
2018-12-26T09:47:57.334Z,29.42
2018-12-26T09:50:28.645Z,23.33
2018-12-26T09:53:00.042Z,16.20
2018-12-26T09:55:31.317Z,16.53
2018-12-26T09:58:02.788Z,12.77
2018-12-26T10:00:34.300Z,8.43
2018-12-26T10:03:05.621Z,21.17
2018-12-26T10:05:37.090Z,16.83
2018-12-26T10:08:08.373Z,20.43
2018-12-26T10:10:39.835Z,8.40
2018-12-26T10:13:11.427Z,9.40
2018-12-26T10:15:42.684Z,9.97
2018-12-26T10:18:14.369Z,9.60
2018-12-26T10:20:45.920Z,15.77
2018-12-26T10:23:17.332Z,12.33
2018-12-26T10:25:48.963Z,11.20
2018-12-26T10:28:20.124Z,12.43
2018-12-26T10:30:51.403Z,9.23
2018-12-26T10:33:23.950Z,6.43
2018-12-26T10:35:55.519Z,152.87
2018-12-26T10:38:27.265Z,12.70
2018-12-26T10:40:59.885Z,52.33
2018-12-26T10:43:31.590Z,6.87
2018-12-26T10:46:03.032Z,6.30
2018-12-26T10:48:34.305Z,4.70
2018-12-26T10:51:05.985Z,5.85
2018-12-26T10:53:38.014Z,7.50
2018-12-26T10:56:09.102Z,4.65
2018-12-26T10:58:40.339Z,8.15
2018-12-26T11:01:11.947Z,3.37
2018-12-26T11:03:43.249Z,8.98
2018-12-26T11:06:14.466Z,40.85
2018-12-26T11:08:46.172Z,4.33
2018-12-26T11:11:17.730Z,6.10
2018-12-26T11:13:49.377Z,5.25
2018-12-26T11:16:20.717Z,3.70
2018-12-26T11:19:04.190Z,3.98
2018-12-26T11:21:35.571Z,4.62
2018-12-26T11:24:06.876Z,3.55
2018-12-26T11:26:38.246Z,5.03
2018-12-26T11:29:18.222Z,3.37
2018-12-26T11:31:43.126Z,3.20
2018-12-26T11:34:14.753Z,3.33
2018-12-26T11:36:46.074Z,3.72
2018-12-26T11:39:17.509Z,3.55
2018-12-26T11:41:49.107Z,4.33
2018-12-26T11:44:20.820Z,6.12
2018-12-26T11:46:52.287Z,13.68
2018-12-26T11:49:23.858Z,71.62
2018-12-26T11:51:55.650Z,37.55
2018-12-26T11:54:27.393Z,9.98
2018-12-26T11:56:58.744Z,14.38
2018-12-26T11:59:30.290Z,15.25
2018-12-26T12:02:02.172Z,24.52
2018-12-26T12:04:33.877Z,35.48
2018-12-26T12:07:05.451Z,50.23
2018-12-26T12:09:36.954Z,49.55
2018-12-26T12:12:08.596Z,56.83
2018-12-26T12:14:40.183Z,70.08
2018-12-26T12:17:11.677Z,47.88
2018-12-26T12:19:45.145Z,42.08
2018-12-26T12:22:16.286Z,31.68
2018-12-26T12:24:47.965Z,23.30
2018-12-26T12:27:20.146Z,16.20
2018-12-26T12:29:51.814Z,19.52
2018-12-26T12:32:23.395Z,22.93
2018-12-26T12:34:55.126Z,19.05
2018-12-26T12:37:26.751Z,18.15
2018-12-26T12:39:58.666Z,16.23
2018-12-26T12:42:30.018Z,19.02
2018-12-26T12:45:02.162Z,17.50
2018-12-26T12:47:34.923Z,14.18
2018-12-26T12:50:07.323Z,18.82
2018-12-26T12:52:39.174Z,15.90
2018-12-26T12:55:22.108Z,16.15
2018-12-26T12:57:54.150Z,20.77
2018-12-26T13:00:25.949Z,25.55
2018-12-26T13:03:00.516Z,23.05
2018-12-26T13:05:36.412Z,21.02
2018-12-26T13:08:07.769Z,17.55
2018-12-26T13:10:39.416Z,20.77
2018-12-26T13:13:10.787Z,26.73
2018-12-26T13:15:42.476Z,17.82
2018-12-26T13:18:13.851Z,25.02
2018-12-26T13:20:45.402Z,16.37
2018-12-26T13:23:16.942Z,18.23
2018-12-26T13:25:48.361Z,23.32
2018-12-26T13:28:19.788Z,17.50
2018-12-26T13:30:51.282Z,36.55
2018-12-26T13:33:22.875Z,34.25
2018-12-26T13:35:54.809Z,28.62
2018-12-26T13:38:26.185Z,25.62
2018-12-26T13:40:57.970Z,22.48
2018-12-26T13:43:29.993Z,57.60
2018-12-26T13:46:01.501Z,24.15
2018-12-26T13:48:33.080Z,24.18
2018-12-26T13:51:04.666Z,26.70
2018-12-26T13:53:36.276Z,23.80
2018-12-26T13:56:07.979Z,19.20
2018-12-26T13:58:39.462Z,14.07
2018-12-26T14:01:11.169Z,13.68
2018-12-26T14:03:42.678Z,14.10
2018-12-26T14:06:14.565Z,14.33
2018-12-26T14:09:01.693Z,15.95
2018-12-26T14:11:32.888Z,12.53
2018-12-26T14:14:04.402Z,8.30
2018-12-26T14:16:35.891Z,8.93
2018-12-26T14:19:07.625Z,11.63
2018-12-26T14:21:43.940Z,15.03
2018-12-26T14:24:22.062Z,15.55
2018-12-26T14:27:04.743Z,12.85
2018-12-26T14:29:45.813Z,9.15
2018-12-26T14:32:17.564Z,8.43
2018-12-26T14:34:59.763Z,10.70
2018-12-26T14:37:31.316Z,10.93
2018-12-26T14:40:04.280Z,11.48
2018-12-26T14:45:17.832Z,24.37
2018-12-26T14:47:57.149Z,17.25
2018-12-26T14:50:28.713Z,48.63
2018-12-26T14:53:00.472Z,35.30
2018-12-26T14:55:32.426Z,31.12
2018-12-26T14:58:04.209Z,19.32
2018-12-26T15:00:35.628Z,20.17
2018-12-26T15:03:09.012Z,16.93
2018-12-26T15:05:45.593Z,18.70
2018-12-26T15:08:17.758Z,23.40
2018-12-26T15:10:49.293Z,32.98
2018-12-26T15:13:20.960Z,37.73
2018-12-26T15:15:52.523Z,31.65
2018-12-26T15:18:27.353Z,40.15
2018-12-26T15:20:58.962Z,40.70
2018-12-26T15:23:30.781Z,49.03
2018-12-26T15:26:03.875Z,40.90
2018-12-26T15:28:35.872Z,43.92
2018-12-26T15:31:07.200Z,45.98
2018-12-26T15:33:44.107Z,41.68
2018-12-26T15:36:15.701Z,27.13
2018-12-26T15:38:47.534Z,25.77
2018-12-26T15:41:21.907Z,24.63
2018-12-26T15:43:53.822Z,25.68
2018-12-26T15:46:25.455Z,30.97
2018-12-26T15:48:57.281Z,45.63
2018-12-26T15:51:28.761Z,36.42
2018-12-26T15:54:00.238Z,30.37
2018-12-26T15:56:35.105Z,31.07
2018-12-26T15:59:07.082Z,26.48
2018-12-26T16:01:39.345Z,29.10
2018-12-26T16:04:10.935Z,22.95
2018-12-26T16:06:42.477Z,24.55
2018-12-26T16:09:14.392Z,20.75
2018-12-26T16:11:46.179Z,18.42
2018-12-26T16:14:18.359Z,20.43
2018-12-26T16:16:50.077Z,22.15
2018-12-26T16:19:26.883Z,24.00
2018-12-26T16:21:58.510Z,16.87
2018-12-26T16:24:30.080Z,18.25
2018-12-26T16:27:01.302Z,16.97
2018-12-26T16:29:35.752Z,23.05
2018-12-26T16:32:07.431Z,21.87
2018-12-26T16:34:39.128Z,24.25
2018-12-26T16:37:11.251Z,20.88
2018-12-26T16:39:42.730Z,25.82
2018-12-26T16:42:14.560Z,27.30
2018-12-26T16:44:45.953Z,24.92
2018-12-26T16:47:19.243Z,28.75
2018-12-26T16:49:51.101Z,30.88
2018-12-26T16:52:24.581Z,16.12
2018-12-26T16:54:56.695Z,24.37
2018-12-26T16:57:29.727Z,20.40
2018-12-26T17:00:01.508Z,18.20
2018-12-26T17:02:32.962Z,18.23
2018-12-26T17:05:06.815Z,16.95
2018-12-26T17:07:38.497Z,16.62
2018-12-26T17:10:14.412Z,17.67
2018-12-26T17:12:45.877Z,15.25
2018-12-26T17:15:17.638Z,14.73
2018-12-26T17:17:49.423Z,14.55
2018-12-26T17:20:25.224Z,14.90
2018-12-26T17:22:58.602Z,13.98
2018-12-26T17:25:30.326Z,14.50
2018-12-26T17:28:02.299Z,13.78
2018-12-26T17:30:40.473Z,17.05
2018-12-26T17:33:13.739Z,15.38
2018-12-26T17:35:51.992Z,13.70
2018-12-26T17:38:34.544Z,14.03
2018-12-26T17:41:10.689Z,11.48
2018-12-26T17:43:42.794Z,11.45
2018-12-26T17:46:28.522Z,12.05
2018-12-26T17:49:00.318Z,11.53
2018-12-26T17:51:33.233Z,12.53
2018-12-26T17:54:32.096Z,10.78
2018-12-26T17:57:11.515Z,9.45
2018-12-26T17:59:52.863Z,11.85
2018-12-26T18:02:31.907Z,12.65
2018-12-26T18:05:04.312Z,11.15
2018-12-26T18:07:37.193Z,11.03
2018-12-26T18:10:10.116Z,14.53
2018-12-26T18:12:41.954Z,14.53
2018-12-26T18:15:13.910Z,11.93
2018-12-26T18:17:45.411Z,13.25
2018-12-26T18:20:16.987Z,12.30
2018-12-26T18:22:48.832Z,13.18
2018-12-26T18:25:20.352Z,10.05
2018-12-26T18:27:52.720Z,11.88
2018-12-26T18:30:24.406Z,18.07
2018-12-26T18:32:55.669Z,13.18
2018-12-26T18:35:26.828Z,14.55
2018-12-26T18:37:58.844Z,14.75
2018-12-26T18:40:30.380Z,17.52
2018-12-26T18:43:01.978Z,19.80
2018-12-26T18:45:33.873Z,21.50
2018-12-26T18:48:05.513Z,21.20
2018-12-26T18:50:37.211Z,22.37
2018-12-26T18:53:08.920Z,19.10
2018-12-26T18:55:40.521Z,21.85
2018-12-26T18:58:12.486Z,20.15
2018-12-26T19:00:44.732Z,16.87
2018-12-26T19:03:16.745Z,24.95
2018-12-26T19:05:48.833Z,19.20
2018-12-26T19:08:20.954Z,18.25
2018-12-26T19:10:53.155Z,17.45
2018-12-26T19:13:25.560Z,17.40
2018-12-26T19:15:57.705Z,23.22
2018-12-26T19:18:29.737Z,21.90
2018-12-26T19:21:01.862Z,21.07
2018-12-26T19:23:34.141Z,19.15
2018-12-26T19:26:05.763Z,18.95
2018-12-26T19:28:37.399Z,18.98
2018-12-26T19:31:09.031Z,17.05
2018-12-26T19:33:40.442Z,17.60
2018-12-26T19:36:23.285Z,16.95
2018-12-26T19:38:54.737Z,15.53
2018-12-26T19:41:25.966Z,15.03
2018-12-26T19:43:57.565Z,16.02
2018-12-26T19:46:29.546Z,15.63
2018-12-26T19:49:01.963Z,13.28
2018-12-26T19:51:34.127Z,13.05
2018-12-26T19:54:06.607Z,12.82
2018-12-26T19:56:40.308Z,11.70
2018-12-26T19:59:12.568Z,13.85
2018-12-26T20:01:48.285Z,13.30
2018-12-26T20:04:18.404Z,14.50
2018-12-26T20:06:49.880Z,18.45
2018-12-26T20:09:21.687Z,14.93
2018-12-26T20:11:52.935Z,17.05
2018-12-26T20:14:24.459Z,18.55
2018-12-26T20:16:56.002Z,24.52
2018-12-26T20:19:27.558Z,29.10
2018-12-26T20:21:59.054Z,32.05
2018-12-26T20:24:30.591Z,35.40
2018-12-26T20:27:01.989Z,33.48
2018-12-26T20:29:33.444Z,34.55
2018-12-26T20:32:05.064Z,38.85
2018-12-26T20:34:36.415Z,36.73
2018-12-26T20:37:08.093Z,48.63
2018-12-26T20:39:39.727Z,51.40
2018-12-26T20:42:11.273Z,57.35
2018-12-26T20:44:42.501Z,64.00
2018-12-26T20:47:13.766Z,62.53
2018-12-26T20:49:45.226Z,65.97
2018-12-26T20:52:16.595Z,63.98
2018-12-26T20:54:48.023Z,66.70
2018-12-26T20:57:19.861Z,62.30
2018-12-26T20:59:51.767Z,73.40
2018-12-26T21:02:23.069Z,69.35
2018-12-26T21:04:54.803Z,67.60
2018-12-26T21:07:26.417Z,48.75
2018-12-26T21:09:58.044Z,51.05
2018-12-26T21:12:30.388Z,40.12
2018-12-26T21:15:01.955Z,45.03
2018-12-26T21:17:33.326Z,42.40
2018-12-26T21:20:04.798Z,43.10
2018-12-26T21:22:36.378Z,43.13
2018-12-26T21:25:09.240Z,42.38
2018-12-26T21:27:41.020Z,38.28
2018-12-26T21:30:15.483Z,33.95
2018-12-26T21:32:47.318Z,33.18
2018-12-26T21:35:19.021Z,36.30
2018-12-26T21:37:50.931Z,33.25
2018-12-26T21:40:22.469Z,36.45
2018-12-26T21:42:55.170Z,28.38
2018-12-26T21:45:26.990Z,28.87
2018-12-26T21:47:58.569Z,34.13
2018-12-26T21:50:30.466Z,31.57
2018-12-26T21:53:02.188Z,31.00
2018-12-26T21:55:33.847Z,33.23
2018-12-26T21:58:05.525Z,44.42
2018-12-26T22:00:36.855Z,40.83
2018-12-26T22:03:09.542Z,48.95
2018-12-26T22:05:41.205Z,50.35
2018-12-26T22:08:12.841Z,73.07
2018-12-26T22:10:44.468Z,88.80
2018-12-26T22:13:16.056Z,109.55
2018-12-26T22:15:47.682Z,106.80
2018-12-26T22:18:19.306Z,126.22
2018-12-26T22:21:02.906Z,117.47
2018-12-26T22:23:34.487Z,105.60
2018-12-26T22:26:05.985Z,105.92
2018-12-26T22:28:37.820Z,104.32
2018-12-26T22:31:10.453Z,93.37
2018-12-26T22:33:42.460Z,73.15
2018-12-26T22:36:14.175Z,83.42
2018-12-26T22:38:45.931Z,69.90
2018-12-26T22:41:17.753Z,78.45
2018-12-26T22:43:49.673Z,76.77
2018-12-26T22:46:22.482Z,68.33
2018-12-26T22:48:54.093Z,66.60
2018-12-26T22:51:25.623Z,77.47
2018-12-26T22:53:57.196Z,74.42
2018-12-26T22:56:28.737Z,79.00
2018-12-26T22:59:00.500Z,67.30
2018-12-26T23:01:32.096Z,70.03
2018-12-26T23:04:03.762Z,67.30
2018-12-26T23:06:36.506Z,56.60
2018-12-26T23:09:09.036Z,44.65
2018-12-26T23:11:40.669Z,39.40
2018-12-26T23:14:12.226Z,38.55
2018-12-26T23:16:43.808Z,30.23
2018-12-26T23:19:15.128Z,22.70
2018-12-26T23:21:46.986Z,29.92
2018-12-26T23:24:18.565Z,32.03
2018-12-26T23:26:50.119Z,34.00
2018-12-26T23:29:21.934Z,28.40
2018-12-26T23:31:54.886Z,27.07
2018-12-26T23:34:26.678Z,25.15
2018-12-26T23:36:58.297Z,25.62
2018-12-26T23:39:29.851Z,28.00
2018-12-26T23:42:01.253Z,27.02
2018-12-26T23:44:32.918Z,31.37
2018-12-26T23:47:04.767Z,26.27
2018-12-26T23:49:36.538Z,25.72
2018-12-26T23:52:08.589Z,25.08
2018-12-26T23:54:40.264Z,27.60
2018-12-26T23:57:11.784Z,23.83
2018-12-26T23:59:43.287Z,27.32
